Time;durP1;ratioP1;P1;durP2;ratioP2;P2;SDS_P1;SDS_P2;PMS_P1;PMS_P2;Temp;Humidity;BMP_temperature;BMP_pressure;BME280_temperature;BME280_humidity;BME280_pressure;Samples;Min_cycle;Max_cycle;Signal;HPM_P1;HPM_P2
2021/08/05 00:01:48;;;;;;;14.23;4.30;;;17.80;99.90;;;;;;4972726;28;20026;-79
2021/08/05 00:04:14;;;;;;;8.75;4.00;;;17.80;99.90;;;;;;4972695;28;20153;-79
2021/08/05 00:06:40;;;;;;;9.10;4.00;;;17.80;99.90;;;;;;4973135;28;20537;-82
2021/08/05 00:09:06;;;;;;;8.05;3.75;;;17.80;99.90;;;;;;4972718;28;20058;-80
2021/08/05 00:11:32;;;;;;;20.17;4.22;;;17.80;99.90;;;;;;4955446;28;20041;-79
2021/08/05 00:13:58;;;;;;;13.07;4.05;;;17.80;99.90;;;;;;4972647;28;20035;-79
2021/08/05 00:16:24;;;;;;;14.50;4.03;;;17.80;99.90;;;;;;4971913;28;20058;-79
2021/08/05 00:18:50;;;;;;;9.85;3.97;;;17.90;99.90;;;;;;4972846;28;20522;-81
2021/08/05 00:21:17;;;;;;;8.68;4.13;;;17.80;99.90;;;;;;4972744;28;20026;-81
2021/08/05 00:23:43;;;;;;;11.45;3.67;;;17.80;99.90;;;;;;4972841;28;20444;-79
2021/08/05 00:26:09;;;;;;;8.18;4.28;;;17.70;99.90;;;;;;4972865;28;20109;-79
2021/08/05 00:28:35;;;;;;;12.13;3.63;;;17.70;99.90;;;;;;4955199;28;20048;-80
2021/08/05 00:31:00;;;;;;;15.55;4.20;;;17.70;99.90;;;;;;4972577;28;20037;-81
2021/08/05 00:33:26;;;;;;;13.63;4.18;;;17.60;99.90;;;;;;4954442;28;20027;-81
2021/08/05 00:35:52;;;;;;;9.00;4.32;;;17.60;99.90;;;;;;4956995;28;20042;-80
2021/08/05 00:38:17;;;;;;;10.75;4.65;;;17.60;99.90;;;;;;4951585;29;20031;-80
2021/08/05 00:40:43;;;;;;;7.80;3.70;;;17.60;99.90;;;;;;4935686;29;20038;-79
2021/08/05 00:43:09;;;;;;;10.00;4.30;;;17.60;99.90;;;;;;4955431;28;20110;-81
2021/08/05 00:45:35;;;;;;;9.93;4.82;;;17.60;99.90;;;;;;4972239;28;20039;-81
2021/08/05 00:48:00;;;;;;;9.05;4.13;;;17.50;99.90;;;;;;4972809;28;20105;-80
2021/08/05 00:50:26;;;;;;;14.07;4.95;;;17.50;99.90;;;;;;4972181;28;20030;-79
2021/08/05 00:52:52;;;;;;;7.47;4.55;;;17.50;99.90;;;;;;4972363;28;20505;-79
2021/08/05 00:55:19;;;;;;;10.20;4.78;;;17.40;99.90;;;;;;4972135;28;20039;-80
2021/08/05 00:57:44;;;;;;;8.57;4.50;;;17.40;99.90;;;;;;4971772;28;20031;-81
2021/08/05 01:00:12;;;;;;;10.85;4.40;;;17.40;99.90;;;;;;4971737;28;20073;-81
2021/08/05 01:02:42;;;;;;;9.07;4.50;;;17.40;99.90;;;;;;4971940;28;20545;-80
2021/08/05 01:05:09;;;;;;;10.00;4.05;;;17.40;99.90;;;;;;4954255;28;20039;-80
2021/08/05 01:07:40;;;;;;;8.95;4.55;;;17.40;99.90;;;;;;4971910;28;20038;-80
2021/08/05 01:10:21;;;;;;;8.32;4.55;;;17.40;99.90;;;;;;4953282;28;20050;-80
2021/08/05 01:13:00;;;;;;;10.50;4.35;;;17.40;99.90;;;;;;4971825;28;20038;-80
2021/08/05 01:15:27;;;;;;;10.75;4.95;;;17.50;99.90;;;;;;4971039;28;20121;-81
2021/08/05 01:18:00;;;;;;;9.57;5.00;;;17.50;99.90;;;;;;4971866;28;20037;-80
2021/08/05 01:20:27;;;;;;;11.20;4.50;;;17.50;99.90;;;;;;4953877;28;20031;-79
2021/08/05 01:23:08;;;;;;;9.63;4.72;;;17.50;99.90;;;;;;4971635;28;20117;-81
2021/08/05 01:25:47;;;;;;;9.88;4.80;;;17.50;99.90;;;;;;4972332;28;20483;-81
2021/08/05 01:28:14;;;;;;;10.80;4.70;;;17.50;99.90;;;;;;4972819;28;20057;-80
2021/08/05 01:30:44;;;;;;;9.85;4.18;;;17.50;99.90;;;;;;4975965;28;20030;-80
2021/08/05 01:33:12;;;;;;;10.73;4.43;;;17.50;99.90;;;;;;4976024;28;20050;-80
2021/08/05 01:35:40;;;;;;;9.32;4.93;;;17.40;99.90;;;;;;4962598;28;20035;-81
2021/08/05 01:38:07;;;;;;;12.98;4.72;;;17.40;99.90;;;;;;4954464;29;20015;-82
2021/08/05 01:40:33;;;;;;;11.48;4.70;;;17.40;99.90;;;;;;4956120;29;20102;-81
2021/08/05 01:42:59;;;;;;;12.27;5.30;;;17.40;99.90;;;;;;4941773;28;20467;-80
2021/08/05 01:45:26;;;;;;;12.25;4.68;;;17.50;99.90;;;;;;4975618;28;20038;-80
2021/08/05 01:47:52;;;;;;;13.77;4.85;;;17.50;99.90;;;;;;4975521;28;20037;-80
2021/08/05 01:50:18;;;;;;;14.82;4.72;;;17.50;99.90;;;;;;4975186;28;20402;-81
2021/08/05 01:52:45;;;;;;;10.52;4.32;;;17.50;99.90;;;;;;4975102;28;20529;-81
2021/08/05 01:55:12;;;;;;;17.65;5.15;;;17.50;99.90;;;;;;4957864;28;20031;-81
2021/08/05 01:57:38;;;;;;;10.70;5.10;;;17.60;99.90;;;;;;4957585;28;20027;-80
2021/08/05 02:00:06;;;;;;;11.35;4.75;;;17.50;99.90;;;;;;4975216;28;20034;-80
2021/08/05 02:02:32;;;;;;;12.13;4.50;;;17.60;99.90;;;;;;4957323;28;20475;-81
2021/08/05 02:05:07;;;;;;;10.75;5.05;;;17.60;99.90;;;;;;4957406;28;20450;-81
2021/08/05 02:07:45;;;;;;;10.18;4.63;;;17.60;99.90;;;;;;4974920;28;20061;-81
2021/08/05 02:10:23;;;;;;;12.20;4.97;;;17.60;99.90;;;;;;4974987;28;20038;-79
2021/08/05 02:13:00;;;;;;;11.77;5.00;;;17.60;99.90;;;;;;4974617;28;20022;-81
2021/08/05 02:15:28;;;;;;;9.75;4.25;;;17.60;99.90;;;;;;4974488;28;20045;-81
2021/08/05 02:17:55;;;;;;;6.80;3.75;;;17.60;99.90;;;;;;4957011;28;20527;-80
2021/08/05 02:20:22;;;;;;;9.10;3.90;;;17.60;99.90;;;;;;4974949;28;20529;-80
2021/08/05 02:22:48;;;;;;;10.35;4.22;;;17.60;99.90;;;;;;4957220;28;20462;-80
2021/08/05 02:25:15;;;;;;;7.43;4.05;;;17.60;99.90;;;;;;4974513;28;20039;-80
2021/08/05 02:27:42;;;;;;;11.18;4.43;;;17.60;99.90;;;;;;4974113;28;20113;-81
2021/08/05 02:30:09;;;;;;;8.93;4.25;;;17.60;99.90;;;;;;4974814;28;20030;-81
2021/08/05 02:32:36;;;;;;;7.75;3.83;;;17.60;99.90;;;;;;4956927;28;20536;-80
2021/08/05 02:35:04;;;;;;;7.57;4.40;;;17.60;99.90;;;;;;4973937;28;20031;-81
2021/08/05 02:37:30;;;;;;;13.40;4.03;;;17.60;99.90;;;;;;4974379;28;20026;-80
2021/08/05 02:39:56;;;;;;;8.90;3.97;;;17.60;99.90;;;;;;4955594;28;20034;-81
2021/08/05 02:42:22;;;;;;;10.23;4.55;;;17.50;99.90;;;;;;4951186;28;20090;-81
2021/08/05 02:44:48;;;;;;;8.02;3.97;;;17.40;99.90;;;;;;4949702;28;20114;-81
2021/08/05 02:47:15;;;;;;;12.27;3.78;;;17.40;99.90;;;;;;4956477;28;20153;-80
2021/08/05 02:49:41;;;;;;;8.85;3.72;;;17.50;99.90;;;;;;4974129;28;20029;-79
2021/08/05 02:52:07;;;;;;;11.15;4.18;;;17.50;99.90;;;;;;4974632;28;20026;-80
2021/08/05 02:54:34;;;;;;;7.47;4.13;;;17.50;99.90;;;;;;4973859;28;20490;-81
2021/08/05 02:56:59;;;;;;;10.50;4.03;;;17.50;99.90;;;;;;4974439;28;20027;-81
2021/08/05 02:59:29;;;;;;;15.20;4.25;;;17.50;99.90;;;;;;4974128;28;20037;-80
2021/08/05 03:01:55;;;;;;;10.00;3.70;;;17.40;99.90;;;;;;4974098;28;20042;-80
2021/08/05 03:04:21;;;;;;;10.77;4.30;;;17.40;99.90;;;;;;4954911;28;20121;-80
2021/08/05 03:06:47;;;;;;;10.35;4.00;;;17.30;99.90;;;;;;4974340;28;20031;-81
2021/08/05 03:09:15;;;;;;;9.45;3.80;;;17.30;99.90;;;;;;4974128;28;20027;-81
2021/08/05 03:11:41;;;;;;;8.45;3.80;;;17.30;99.90;;;;;;4956531;28;20069;-80
2021/08/05 03:14:07;;;;;;;5.97;3.63;;;17.30;99.90;;;;;;4973567;28;20027;-80
2021/08/05 03:16:32;;;;;;;9.40;3.75;;;17.30;99.90;;;;;;4973289;28;20101;-80
2021/08/05 03:18:58;;;;;;;9.90;3.72;;;17.30;99.90;;;;;;4973040;28;20034;-80
2021/08/05 03:21:23;;;;;;;9.02;3.90;;;17.20;99.90;;;;;;4973597;28;20171;-81
2021/08/05 03:23:49;;;;;;;6.78;3.10;;;17.20;99.90;;;;;;4974085;28;20477;-80
2021/08/05 03:26:15;;;;;;;8.65;3.25;;;17.30;99.90;;;;;;4973539;28;20544;-81
2021/08/05 03:28:40;;;;;;;9.93;3.28;;;17.30;99.90;;;;;;4973730;28;20046;-80
2021/08/05 03:31:06;;;;;;;7.15;3.53;;;17.30;99.90;;;;;;4973942;28;20386;-81
2021/08/05 03:33:32;;;;;;;6.13;3.75;;;17.20;99.90;;;;;;4973345;28;20383;-81
2021/08/05 03:35:57;;;;;;;7.82;3.35;;;17.20;99.90;;;;;;4940005;29;20245;-81
2021/08/05 03:38:23;;;;;;;5.63;3.33;;;17.30;99.90;;;;;;4954223;29;20027;-80
2021/08/05 03:40:49;;;;;;;9.32;3.20;;;17.30;99.90;;;;;;4952956;29;20078;-80
2021/08/05 03:43:15;;;;;;;7.28;3.60;;;17.30;99.90;;;;;;4957070;28;20058;-81
2021/08/05 03:45:40;;;;;;;6.80;3.10;;;17.40;99.90;;;;;;4973520;28;20030;-80
2021/08/05 03:48:06;;;;;;;7.80;3.08;;;17.40;99.90;;;;;;4973295;28;20026;-81
2021/08/05 03:50:31;;;;;;;5.40;3.33;;;17.40;99.90;;;;;;4972157;28;20082;-80
2021/08/05 03:52:57;;;;;;;6.82;3.60;;;17.40;99.90;;;;;;4972983;28;20046;-80
2021/08/05 03:55:23;;;;;;;6.20;3.42;;;17.40;99.90;;;;;;4973627;28;20046;-80
2021/08/05 03:57:48;;;;;;;6.07;3.55;;;17.40;99.90;;;;;;4973252;28;20037;-80
2021/08/05 04:00:17;;;;;;;11.98;3.80;;;17.40;99.90;;;;;;4973100;28;20037;-81
2021/08/05 04:02:43;;;;;;;8.00;3.25;;;17.30;99.90;;;;;;4972423;28;20434;-80
2021/08/05 04:05:10;;;;;;;5.85;3.38;;;17.30;99.90;;;;;;4955835;28;20034;-81
2021/08/05 04:07:36;;;;;;;5.45;3.20;;;17.40;99.90;;;;;;4973665;28;20113;-80
2021/08/05 04:10:03;;;;;;;10.65;3.75;;;17.40;99.90;;;;;;4971207;28;20031;-80
2021/08/05 04:12:29;;;;;;;9.05;3.35;;;17.40;99.90;;;;;;4972710;28;20498;-81
2021/08/05 04:14:54;;;;;;;8.93;2.97;;;17.50;99.90;;;;;;4971845;28;20041;-81
2021/08/05 04:17:20;;;;;;;6.55;3.30;;;17.50;99.90;;;;;;4972179;28;20455;-79
2021/08/05 04:19:46;;;;;;;5.25;3.42;;;17.60;99.90;;;;;;4937302;29;20458;-79
2021/08/05 04:22:12;;;;;;;8.70;3.97;;;17.60;99.90;;;;;;4953553;29;20031;-81
2021/08/05 04:24:37;;;;;;;7.97;3.50;;;17.60;99.90;;;;;;4936224;29;20458;-81
2021/08/05 04:27:04;;;;;;;6.82;3.55;;;17.60;99.90;;;;;;4936402;29;20129;-81
2021/08/05 04:29:30;;;;;;;5.57;3.10;;;17.60;99.90;;;;;;4936124;29;20446;-81
2021/08/05 04:31:56;;;;;;;6.15;3.10;;;17.70;99.90;;;;;;4953163;29;20031;-79
2021/08/05 04:34:21;;;;;;;6.72;2.72;;;17.80;99.90;;;;;;4952550;29;20580;-80
2021/08/05 04:36:47;;;;;;;6.88;3.00;;;17.80;99.90;;;;;;4952953;29;20577;-79
2021/08/05 04:39:12;;;;;;;4.80;2.67;;;17.90;99.90;;;;;;4952870;29;20034;-80
2021/08/05 04:41:38;;;;;;;4.65;2.90;;;18.00;99.90;;;;;;4951713;29;20033;-81
2021/08/05 04:44:04;;;;;;;5.03;2.70;;;18.00;99.90;;;;;;4962557;28;20453;-80
2021/08/05 04:46:30;;;;;;;7.90;2.92;;;18.00;99.90;;;;;;4972327;28;20027;-79
2021/08/05 04:48:55;;;;;;;7.30;3.05;;;18.00;99.90;;;;;;4972218;28;20069;-80
2021/08/05 04:51:21;;;;;;;7.07;2.92;;;18.10;99.90;;;;;;4954553;28;20035;-81
2021/08/05 04:53:47;;;;;;;4.63;2.78;;;18.10;99.90;;;;;;4971873;28;20105;-80
2021/08/05 04:56:12;;;;;;;3.92;3.00;;;18.10;99.90;;;;;;4972255;28;20420;-80
2021/08/05 04:58:38;;;;;;;6.93;2.70;;;18.10;99.90;;;;;;4954557;28;20031;-81
2021/08/05 05:01:04;;;;;;;8.57;2.92;;;18.10;99.90;;;;;;4972079;28;20117;-81
2021/08/05 05:03:29;;;;;;;9.32;2.90;;;18.10;99.90;;;;;;4950966;28;20094;-80
2021/08/05 05:05:55;;;;;;;5.25;2.58;;;18.10;99.90;;;;;;4952853;29;20031;-80
2021/08/05 05:08:23;;;;;;;7.00;2.75;;;18.20;99.90;;;;;;4952900;29;20062;-82
2021/08/05 05:10:51;;;;;;;10.40;2.83;;;18.20;99.90;;;;;;4951377;29;20387;-80
2021/08/05 05:13:17;;;;;;;6.22;2.95;;;18.20;99.90;;;;;;4952799;28;20482;-79
2021/08/05 05:15:44;;;;;;;5.60;2.28;;;18.20;99.90;;;;;;4952874;28;20138;-83
2021/08/05 05:18:10;;;;;;;5.50;2.50;;;18.20;99.90;;;;;;4951596;28;20027;-83
2021/08/05 05:20:36;;;;;;;6.00;2.50;;;18.30;99.90;;;;;;4952224;28;20038;-82
2021/08/05 05:23:03;;;;;;;4.43;2.47;;;18.40;99.90;;;;;;4951201;29;20399;-80
2021/08/05 05:25:29;;;;;;;6.78;2.17;;;18.40;99.90;;;;;;4952460;28;20035;-80
2021/08/05 05:27:55;;;;;;;4.88;2.30;;;18.40;99.90;;;;;;4952362;29;20430;-80
2021/08/05 05:30:21;;;;;;;5.55;2.50;;;18.40;99.90;;;;;;4952452;28;20035;-83
2021/08/05 05:32:47;;;;;;;5.38;2.60;;;18.40;99.90;;;;;;4952423;28;20477;-82
2021/08/05 05:35:15;;;;;;;6.35;2.17;;;18.40;99.90;;;;;;4942436;28;20027;-80
2021/08/05 05:37:42;;;;;;;7.03;2.40;;;18.40;99.90;;;;;;4932727;29;20507;-80
2021/08/05 05:40:08;;;;;;;6.78;2.20;;;18.40;99.90;;;;;;4931372;29;20020;-80
2021/08/05 05:42:34;;;;;;;4.13;2.40;;;18.50;99.90;;;;;;4932952;29;20500;-82
2021/08/05 05:45:00;;;;;;;4.57;2.30;;;18.50;99.90;;;;;;4950366;29;20110;-83
2021/08/05 05:47:26;;;;;;;10.45;2.72;;;18.40;99.90;;;;;;4950713;29;20023;-80
2021/08/05 05:49:53;;;;;;;7.57;2.42;;;18.50;99.90;;;;;;4952083;28;20042;-80
2021/08/05 05:52:18;;;;;;;6.15;2.53;;;18.50;99.90;;;;;;4952316;28;20035;-82
2021/08/05 05:54:45;;;;;;;7.38;2.42;;;18.70;99.90;;;;;;4952169;29;20035;-79
2021/08/05 05:57:11;;;;;;;8.20;2.65;;;18.80;99.90;;;;;;4950852;29;20030;-82
2021/08/05 05:59:37;;;;;;;6.28;2.67;;;18.80;99.90;;;;;;4952264;29;20031;-81
2021/08/05 06:02:02;;;;;;;5.20;2.40;;;18.70;99.90;;;;;;4952035;28;20094;-79
2021/08/05 06:04:28;;;;;;;4.97;2.25;;;18.70;99.90;;;;;;4949713;28;20063;-78
2021/08/05 06:06:55;;;;;;;4.43;2.13;;;18.70;99.90;;;;;;4952040;28;20031;-78
2021/08/05 06:09:20;;;;;;;5.53;2.20;;;18.60;99.90;;;;;;4951964;28;20067;-81
2021/08/05 06:11:46;;;;;;;6.05;2.08;;;18.60;99.90;;;;;;4952090;29;20470;-80
2021/08/05 06:14:12;;;;;;;3.15;1.90;;;18.60;99.90;;;;;;4952456;28;20110;-77
2021/08/05 06:16:37;;;;;;;5.20;1.73;;;18.70;99.90;;;;;;4942017;28;20041;-76
2021/08/05 06:19:03;;;;;;;4.72;2.10;;;18.70;99.90;;;;;;4974585;28;20035;-78
2021/08/05 06:21:29;;;;;;;4.65;2.30;;;18.70;99.90;;;;;;4955414;28;20027;-80
2021/08/05 06:23:55;;;;;;;3.28;1.95;;;18.70;99.90;;;;;;4957263;28;20039;-78
2021/08/05 06:26:22;;;;;;;6.28;2.28;;;18.70;99.90;;;;;;4974427;28;20031;-77
2021/08/05 06:28:48;;;;;;;5.90;2.30;;;18.70;99.90;;;;;;4972934;28;20077;-81
2021/08/05 06:31:16;;;;;;;7.30;2.20;;;18.80;99.90;;;;;;4957129;28;20039;-81
2021/08/05 06:33:42;;;;;;;4.63;2.10;;;18.80;99.90;;;;;;4955068;28;20034;-77
2021/08/05 06:36:07;;;;;;;5.45;2.15;;;18.90;99.90;;;;;;4956336;28;20031;-80
2021/08/05 06:38:33;;;;;;;8.32;2.40;;;18.90;99.90;;;;;;4954976;28;20394;-80
2021/08/05 06:40:59;;;;;;;4.25;2.30;;;18.90;99.90;;;;;;4955339;28;20023;-77
2021/08/05 06:43:25;;;;;;;5.78;2.30;;;18.90;99.90;;;;;;4956109;28;20034;-77
2021/08/05 06:45:50;;;;;;;9.93;2.42;;;18.90;99.90;;;;;;4971963;28;20030;-77
2021/08/05 06:48:16;;;;;;;4.78;2.40;;;18.90;99.90;;;;;;4950274;29;20494;-81
2021/08/05 06:50:42;;;;;;;7.50;2.28;;;19.00;99.90;;;;;;4937286;29;20034;-80
2021/08/05 06:53:07;;;;;;;5.63;2.70;;;19.00;99.90;;;;;;4949577;28;20053;-77
2021/08/05 06:55:33;;;;;;;5.97;2.40;;;19.00;99.90;;;;;;4972094;28;20031;-77
2021/08/05 06:57:58;;;;;;;7.85;2.28;;;19.10;99.90;;;;;;4937187;29;20035;-77
2021/08/05 07:00:24;;;;;;;12.10;2.05;;;19.10;99.90;;;;;;4943450;28;20038;-82
2021/08/05 07:02:50;;;;;;;3.83;1.75;;;19.00;99.90;;;;;;4953333;28;20506;-80
2021/08/05 07:05:15;;;;;;;6.00;1.80;;;19.00;99.90;;;;;;4953720;28;20053;-77
2021/08/05 07:07:41;;;;;;;4.95;1.75;;;19.20;99.90;;;;;;4953771;28;20568;-78
2021/08/05 07:10:07;;;;;;;2.95;1.60;;;19.30;99.90;;;;;;4939059;28;20148;-77
2021/08/05 07:12:33;;;;;;;6.22;1.85;;;19.30;99.90;;;;;;4949291;29;20423;-77
2021/08/05 07:15:01;;;;;;;3.20;1.77;;;19.30;99.90;;;;;;4953234;29;20042;-83
2021/08/05 07:17:27;;;;;;;4.18;1.83;;;19.10;99.90;;;;;;4964020;28;20031;-83
2021/08/05 07:19:53;;;;;;;5.30;1.77;;;18.90;99.90;;;;;;4938087;28;20812;-82
2021/08/05 07:22:19;;;;;;;9.20;1.63;;;18.90;99.90;;;;;;4938025;29;20030;-78
2021/08/05 07:24:48;;;;;;;3.78;1.40;;;18.90;99.90;;;;;;4951203;28;20379;-78
2021/08/05 07:27:24;;;;;;;3.25;1.60;;;18.90;99.90;;;;;;4948676;29;20046;-78
2021/08/05 07:29:50;;;;;;;3.58;1.55;;;18.90;99.90;;;;;;4954065;29;20031;-81
2021/08/05 07:32:16;;;;;;;7.80;1.35;;;18.90;99.90;;;;;;4947403;28;20100;-79
2021/08/05 07:34:41;;;;;;;5.00;1.38;;;18.90;99.90;;;;;;4948430;29;20482;-80
2021/08/05 07:37:08;;;;;;;5.70;1.25;;;19.00;99.90;;;;;;4935626;29;20410;-79
2021/08/05 07:40:01;;;;;;;3.55;1.50;;;19.10;99.90;;;;;;4935677;29;20078;-78
2021/08/05 07:42:30;;;;;;;;;;;19.10;99.90;;;;;;4934757;29;20027;-78
2021/08/05 07:45:36;;;;;;;2.65;1.20;;;19.10;99.90;;;;;;4951646;28;19914;-78
2021/08/05 07:48:42;;;;;;;5.88;1.20;;;19.20;99.90;;;;;;4935584;28;20031;-78
2021/08/05 07:51:36;;;;;;;3.97;0.95;;;19.30;99.90;;;;;;4935494;29;20475;-78
2021/08/05 07:54:43;;;;;;;2.35;1.23;;;19.70;99.90;;;;;;4935016;28;20046;-77
2021/08/05 07:57:11;;;;;;;7.15;1.48;;;19.70;99.90;;;;;;4939377;28;20507;-78
2021/08/05 07:59:37;;;;;;;2.22;1.05;;;19.70;99.90;;;;;;4955558;28;20058;-78
2021/08/05 08:02:19;;;;;;;3.53;1.00;;;19.70;99.90;;;;;;4974375;28;20030;-78
2021/08/05 08:05:05;;;;;;;2.95;1.02;;;19.60;99.90;;;;;;4931507;28;20043;-78
2021/08/05 08:07:59;;;;;;;2.15;1.08;;;19.70;99.90;;;;;;4932303;29;20086;-79
2021/08/05 08:10:39;;;;;;;3.17;1.20;;;19.60;99.90;;;;;;4934221;29;20063;-78
2021/08/05 08:13:05;;;;;;;4.80;1.27;;;19.60;99.90;;;;;;4931765;29;20059;-78
2021/08/05 08:15:31;;;;;;;3.72;1.00;;;19.60;99.90;;;;;;4936370;29;20039;-78
2021/08/05 08:17:57;;;;;;;4.28;1.02;;;19.70;99.90;;;;;;4951828;29;20563;-78
2021/08/05 08:20:22;;;;;;;3.47;1.10;;;19.70;99.90;;;;;;4951485;29;20106;-78
2021/08/05 08:22:48;;;;;;;1.75;0.77;;;20.00;99.90;;;;;;4938032;29;20419;-78
2021/08/05 08:25:14;;;;;;;3.25;0.93;;;20.40;99.90;;;;;;4934232;29;20028;-78
2021/08/05 08:27:41;;;;;;;3.75;0.80;;;21.90;99.90;;;;;;4932934;29;20091;-78
2021/08/05 08:30:09;;;;;;;3.00;0.70;;;21.40;99.90;;;;;;4932807;29;20111;-79
2021/08/05 08:32:35;;;;;;;4.78;0.82;;;22.50;99.90;;;;;;4944872;29;20035;-79
2021/08/05 08:35:01;;;;;;;4.22;1.02;;;22.10;99.90;;;;;;4944131;28;20028;-77
2021/08/05 08:37:27;;;;;;;4.13;1.20;;;20.70;99.90;;;;;;4931644;29;20440;-78
2021/08/05 08:39:52;;;;;;;7.88;1.20;;;19.90;99.90;;;;;;4930662;29;20016;-78
2021/08/05 08:42:18;;;;;;;6.05;1.20;;;19.40;99.90;;;;;;4931246;29;20075;-78
2021/08/05 08:44:45;;;;;;;3.40;1.50;;;19.40;99.90;;;;;;4945484;29;20876;-78
2021/08/05 08:47:11;;;;;;;4.68;1.33;;;19.60;99.90;;;;;;4952430;28;20039;-79
2021/08/05 08:49:41;;;;;;;4.40;1.50;;;20.10;99.90;;;;;;4931219;29;20114;-77
2021/08/05 08:52:08;;;;;;;4.55;1.42;;;20.40;99.90;;;;;;4932950;29;20091;-77
2021/08/05 08:54:40;;;;;;;4.10;1.50;;;20.40;99.90;;;;;;4933013;29;20380;-74
2021/08/05 08:57:33;;;;;;;2.60;1.30;;;20.60;99.90;;;;;;4938784;29;20027;-79
2021/08/05 09:00:27;;;;;;;2.60;1.40;;;21.00;99.90;;;;;;4950423;29;20137;-79
2021/08/05 09:03:17;;;;;;;4.35;1.40;;;21.30;99.90;;;;;;4932455;29;20503;-79
2021/08/05 09:06:21;;;;;;;4.70;1.77;;;21.40;99.90;;;;;;4921795;29;20039;-77
2021/08/05 09:09:27;;;;;;;4.13;1.50;;;21.60;99.90;;;;;;4934166;29;20553;-78
2021/08/05 09:12:13;;;;;;;2.47;1.40;;;21.10;99.90;;;;;;4934204;28;20070;-79
2021/08/05 09:15:01;;;;;;;6.70;1.90;;;21.00;99.90;;;;;;4933429;29;20086;-78
2021/08/05 09:18:06;;;;;;;1.98;1.25;;;21.20;99.90;;;;;;4942239;28;20047;-79
2021/08/05 09:21:10;;;;;;;4.33;1.43;;;21.80;99.90;;;;;;4943577;29;20039;-78
2021/08/05 09:24:11;;;;;;;5.72;1.77;;;21.90;99.90;;;;;;4934356;29;20054;-78
2021/08/05 09:27:03;;;;;;;3.00;1.50;;;21.60;99.90;;;;;;4952642;28;20070;-78
2021/08/05 09:30:11;;;;;;;7.95;1.10;;;21.50;99.90;;;;;;4937097;29;20066;-78
2021/08/05 09:33:15;;;;;;;7.20;1.60;;;21.50;99.90;;;;;;4934022;28;20023;-78
2021/08/05 09:35:57;;;;;;;4.70;1.30;;;21.50;99.90;;;;;;4932760;29;20043;-78
2021/08/05 09:38:52;;;;;;;4.43;1.20;;;21.30;99.90;;;;;;4933710;29;20027;-78
2021/08/05 09:41:24;;;;;;;7.95;1.33;;;21.10;99.90;;;;;;4948094;28;20047;-78
2021/08/05 09:44:18;;;;;;;4.03;1.05;;;21.20;99.90;;;;;;4949426;28;20023;-79
2021/08/05 09:47:26;;;;;;;3.72;1.25;;;21.00;99.90;;;;;;4932868;29;20042;-78
2021/08/05 09:50:33;;;;;;;5.80;1.52;;;20.80;99.90;;;;;;4954480;28;20041;-78
2021/08/05 09:53:39;;;;;;;5.45;1.20;;;20.80;99.90;;;;;;4957175;28;20039;-77
2021/08/05 09:56:24;;;;;;;2.70;1.20;;;21.00;99.90;;;;;;4949307;29;20062;-77
2021/08/05 09:58:50;;;;;;;2.55;1.23;;;20.90;99.90;;;;;;4939962;28;20039;-77
2021/08/05 10:01:44;;;;;;;2.90;1.30;;;21.00;99.90;;;;;;4957737;28;20058;-77
2021/08/05 10:04:56;;;;;;;3.72;1.38;;;21.00;99.90;;;;;;4943682;29;20054;-78
2021/08/05 10:08:05;;;;;;;7.50;1.67;;;21.00;99.90;;;;;;4936488;28;20043;-77
2021/08/05 10:11:01;;;;;;;5.97;1.48;;;21.10;99.90;;;;;;4934773;28;20035;-77
2021/08/05 10:13:39;;;;;;;4.60;1.83;;;20.90;99.90;;;;;;4935858;29;20510;-77
2021/08/05 10:16:38;;;;;;;6.13;1.63;;;21.00;99.90;;;;;;4935459;29;20418;-78
2021/08/05 10:19:38;;;;;;;8.90;2.00;;;21.20;99.90;;;;;;4935366;28;20031;-77
2021/08/05 10:22:33;;;;;;;7.80;1.80;;;20.80;99.90;;;;;;4937996;28;20051;-77
2021/08/05 10:25:35;;;;;;;8.10;1.77;;;20.70;99.90;;;;;;4943110;29;20051;-75
2021/08/05 10:28:29;;;;;;;7.35;2.20;;;20.80;99.90;;;;;;4935773;29;20043;-77
2021/08/05 10:31:32;;;;;;;6.70;2.75;;;20.90;99.90;;;;;;4936663;29;20043;-78
2021/08/05 10:34:14;;;;;;;7.03;2.00;;;20.90;99.90;;;;;;4935108;29;20045;-77
2021/08/05 10:37:11;;;;;;;4.28;2.00;;;20.80;99.90;;;;;;4953712;28;20023;-77
2021/08/05 10:40:03;;;;;;;7.05;2.40;;;20.70;99.90;;;;;;4933519;29;20048;-78
2021/08/05 10:42:34;;;;;;;5.20;2.00;;;20.60;99.90;;;;;;4944022;28;20394;-78
2021/08/05 10:45:37;;;;;;;7.95;2.38;;;20.50;99.90;;;;;;4952539;28;20043;-77
2021/08/05 10:48:29;;;;;;;8.82;2.85;;;20.10;99.90;;;;;;4953089;28;20532;-77
2021/08/05 10:51:32;;;;;;;9.95;3.00;;;19.70;99.90;;;;;;4953984;28;20038;-78
2021/08/05 10:54:42;;;;;;;9.70;2.88;;;19.50;99.90;;;;;;4935585;28;20043;-78
2021/08/05 10:57:15;;;;;;;9.05;3.40;;;19.40;99.90;;;;;;4936660;29;20062;-80
2021/08/05 11:00:08;;;;;;;12.10;3.40;;;19.00;99.90;;;;;;4934296;28;20027;-80
2021/08/05 11:05:24;;;;;;;12.32;4.13;;;18.80;99.90;;;;;;5067899;28;20393;-78
2021/08/05 11:07:52;;;;;;;11.30;4.80;;;18.70;99.90;;;;;;5068536;28;20142;-78
2021/08/05 11:10:27;;;;;;;10.05;4.32;;;18.70;99.90;;;;;;5067228;28;20439;-80
2021/08/05 11:12:57;;;;;;;9.60;3.95;;;18.70;99.90;;;;;;5067455;28;20029;-78
2021/08/05 11:15:26;;;;;;;11.77;4.22;;;18.50;99.90;;;;;;5068925;28;20017;-80
2021/08/05 11:18:10;;;;;;;10.30;4.32;;;18.50;99.90;;;;;;5068808;28;20507;-79
2021/08/05 11:20:37;;;;;;;16.52;5.22;;;18.70;99.90;;;;;;5069225;28;20439;-78
2021/08/05 11:23:04;;;;;;;14.93;4.68;;;18.70;99.90;;;;;;5068035;28;20396;-78
2021/08/05 11:25:52;;;;;;;14.88;4.68;;;18.80;99.90;;;;;;5068392;28;20026;-78
2021/08/05 11:28:28;;;;;;;11.05;4.88;;;18.70;99.90;;;;;;5068522;28;20534;-79
2021/08/05 11:31:03;;;;;;;10.57;4.22;;;18.70;99.90;;;;;;5068401;28;20551;-79
2021/08/05 11:33:41;;;;;;;11.13;3.78;;;18.60;99.90;;;;;;5066503;28;20496;-78
2021/08/05 11:36:46;;;;;;;11.82;4.40;;;18.60;99.90;;;;;;5068159;28;20033;-78
2021/08/05 11:40:01;;;;;;;11.35;4.43;;;18.90;99.90;;;;;;5064679;28;20016;-79
2021/08/05 11:42:29;;;;;;;12.93;4.00;;;19.00;99.90;;;;;;5062162;28;20045;-79
2021/08/05 11:45:02;;;;;;;14.98;4.45;;;19.00;99.90;;;;;;5062368;28;20016;-78
2021/08/05 11:47:34;;;;;;;16.67;4.80;;;19.10;99.90;;;;;;5064881;28;20061;-79
2021/08/05 11:50:02;;;;;;;9.75;4.32;;;18.90;99.90;;;;;;5066499;28;20032;-85
2021/08/05 11:52:28;;;;;;;20.48;5.63;;;18.80;99.90;;;;;;5065637;28;20479;-78
2021/08/05 11:55:11;;;;;;;18.38;5.45;;;18.80;99.90;;;;;;5067724;28;20035;-82
2021/08/05 11:57:46;;;;;;;14.48;5.65;;;18.80;99.90;;;;;;5068060;28;20029;-84
2021/08/05 12:00:17;;;;;;;13.23;5.10;;;19.00;99.90;;;;;;5066175;28;20039;-78
2021/08/05 12:02:43;;;;;;;16.27;4.88;;;19.10;99.90;;;;;;5067717;28;20035;-79
2021/08/05 12:05:10;;;;;;;14.43;5.43;;;19.00;99.90;;;;;;5067230;28;20044;-79
2021/08/05 12:07:47;;;;;;;22.00;5.63;;;19.00;99.90;;;;;;5067676;28;20067;-78
2021/08/05 12:10:25;;;;;;;19.60;5.05;;;18.90;99.90;;;;;;5080830;28;20031;-79
2021/08/05 12:12:54;;;;;;;13.43;5.00;;;18.60;99.90;;;;;;5081797;28;20029;-84
2021/08/05 12:15:29;;;;;;;21.05;6.28;;;18.50;99.90;;;;;;5080218;28;20032;-78
2021/08/05 12:18:04;;;;;;;22.88;5.88;;;18.50;99.90;;;;;;5066242;28;20103;-79
2021/08/05 12:20:30;;;;;;;20.77;5.97;;;18.40;99.90;;;;;;5062020;28;20021;-81
2021/08/05 12:23:04;;;;;;;30.88;7.32;;;18.40;99.90;;;;;;5062171;28;20041;-78
2021/08/05 12:26:01;;;;;;;25.25;6.57;;;18.70;99.90;;;;;;5063738;28;20032;-79
2021/08/05 12:28:30;;;;;;;30.70;6.43;;;18.70;99.90;;;;;;5064737;28;20040;-79
2021/08/05 12:30:58;;;;;;;23.63;6.05;;;18.70;99.90;;;;;;5062285;28;20036;-82
2021/08/05 12:33:28;;;;;;;18.02;5.68;;;18.80;99.90;;;;;;5061855;28;20021;-79
2021/08/05 12:36:07;;;;;;;27.13;5.13;;;18.80;99.90;;;;;;5062880;28;20033;-77
2021/08/05 12:38:41;;;;;;;18.60;5.30;;;18.80;99.90;;;;;;5060811;28;20029;-83
2021/08/05 12:41:07;;;;;;;19.55;5.40;;;18.70;99.90;;;;;;5065844;28;20052;-79
2021/08/05 12:43:40;;;;;;;14.32;4.20;;;18.70;99.90;;;;;;5053556;28;20064;-84
2021/08/05 12:46:07;;;;;;;;;;;18.70;99.90;;;;;;5053963;28;20025;-78
2021/08/05 12:48:33;;;;;;;23.20;5.55;;;18.80;99.90;;;;;;5053842;28;19912;-80
2021/08/05 12:50:59;;;;;;;15.43;4.25;;;19.10;99.90;;;;;;5054020;28;20496;-78
2021/08/05 12:53:35;;;;;;;26.80;5.28;;;19.20;99.90;;;;;;5053994;28;20067;-77
2021/08/05 12:56:03;;;;;;;17.90;6.20;;;19.20;99.90;;;;;;5053940;28;20025;-77
2021/08/05 12:58:30;;;;;;;16.08;5.93;;;19.20;99.90;;;;;;5054395;28;20095;-80
2021/08/05 13:01:21;;;;;;;19.15;6.60;;;19.00;99.90;;;;;;5054141;28;20037;-78
2021/08/05 13:03:49;;;;;;;21.77;6.30;;;19.00;99.90;;;;;;5053365;28;20045;-78
2021/08/05 13:06:16;;;;;;;17.42;6.68;;;19.00;99.90;;;;;;5052412;28;20025;-78
2021/08/05 13:08:44;;;;;;;21.63;6.85;;;19.00;99.90;;;;;;5052844;28;20009;-77
2021/08/05 13:11:33;;;;;;;20.80;7.65;;;19.00;99.90;;;;;;5052607;28;20488;-83
2021/08/05 13:13:59;;;;;;;19.92;7.18;;;19.00;99.90;;;;;;5047009;28;20037;-78